sensor_id;sensor_type;location;lat;lon;timestamp;P1;durP1;ratioP1;P2;durP2;ratioP2
49153;SDS011;49455;52.252;9.124;2023-11-19T10:27:48;34.58;;;8.10;;
49153;SDS011;49455;52.252;9.124;2023-11-19T10:33:04;38.10;;;7.72;;
49153;SDS011;49455;52.252;9.124;2023-11-19T10:38:15;40.72;;;9.63;;
49153;SDS011;49455;52.252;9.124;2023-11-19T10:43:16;35.28;;;7.05;;
49153;SDS011;49455;52.252;9.124;2023-11-19T10:48:17;34.55;;;7.40;;
49153;SDS011;49455;52.252;9.124;2023-11-19T10:53:18;36.90;;;7.93;;
49153;SDS011;49455;52.252;9.124;2023-11-19T10:58:19;30.70;;;6.22;;
49153;SDS011;49455;52.252;9.124;2023-11-19T11:03:25;27.33;;;6.47;;
49153;SDS011;49455;52.252;9.124;2023-11-19T11:08:28;28.05;;;6.35;;
49153;SDS011;49455;52.252;9.124;2023-11-19T11:13:30;32.50;;;6.85;;
49153;SDS011;49455;52.252;9.124;2023-11-19T11:18:32;34.72;;;7.15;;
49153;SDS011;49455;52.252;9.124;2023-11-19T11:39:13;38.97;;;9.32;;
49153;SDS011;49455;52.252;9.124;2023-11-19T11:44:14;28.88;;;6.38;;
49153;SDS011;49455;52.252;9.124;2023-11-19T11:49:14;34.40;;;6.13;;
49153;SDS011;49455;52.252;9.124;2023-11-19T11:59:19;27.60;;;5.85;;
49153;SDS011;49455;52.252;9.124;2023-11-19T12:04:19;29.25;;;6.82;;
49153;SDS011;49455;52.252;9.124;2023-11-19T12:09:20;24.40;;;6.47;;
49153;SDS011;49455;52.252;9.124;2023-11-19T12:14:37;26.52;;;5.90;;
49153;SDS011;49455;52.252;9.124;2023-11-19T12:20:07;32.13;;;7.03;;
49153;SDS011;49455;52.252;9.124;2023-11-19T12:25:08;31.73;;;5.55;;
49153;SDS011;49455;52.252;9.124;2023-11-19T12:30:10;30.45;;;6.38;;
49153;SDS011;49455;52.252;9.124;2023-11-19T12:35:11;32.85;;;7.07;;
49153;SDS011;49455;52.252;9.124;2023-11-19T12:40:24;29.33;;;6.30;;
49153;SDS011;49455;52.252;9.124;2023-11-19T12:45:35;33.35;;;6.90;;
49153;SDS011;49455;52.252;9.124;2023-11-19T12:55:55;34.33;;;7.35;;
49153;SDS011;49455;52.252;9.124;2023-11-19T13:01:07;33.58;;;6.97;;
49153;SDS011;49455;52.252;9.124;2023-11-19T13:06:09;34.95;;;7.20;;
49153;SDS011;49455;52.252;9.124;2023-11-19T13:11:11;31.23;;;6.13;;
49153;SDS011;49455;52.252;9.124;2023-11-19T13:16:13;28.58;;;5.80;;
49153;SDS011;49455;52.252;9.124;2023-11-19T13:21:13;31.25;;;6.18;;
49153;SDS011;49455;52.252;9.124;2023-11-19T13:26:14;34.67;;;6.63;;
49153;SDS011;49455;52.252;9.124;2023-11-19T13:31:14;29.77;;;6.05;;
49153;SDS011;49455;52.252;9.124;2023-11-19T13:36:15;30.65;;;6.18;;
49153;SDS011;49455;52.252;9.124;2023-11-19T13:41:16;24.63;;;5.90;;
49153;SDS011;49455;52.252;9.124;2023-11-19T13:46:16;34.97;;;6.20;;
49153;SDS011;49455;52.252;9.124;2023-11-19T13:51:16;35.78;;;6.00;;
49153;SDS011;49455;52.252;9.124;2023-11-19T13:56:17;30.38;;;7.07;;
49153;SDS011;49455;52.252;9.124;2023-11-19T14:01:17;29.50;;;5.80;;
49153;SDS011;49455;52.252;9.124;2023-11-19T14:06:18;29.73;;;5.90;;
49153;SDS011;49455;52.252;9.124;2023-11-19T14:11:18;33.67;;;5.65;;
49153;SDS011;49455;52.252;9.124;2023-11-19T14:16:19;27.80;;;5.95;;
49153;SDS011;49455;52.252;9.124;2023-11-19T14:21:19;31.45;;;6.03;;
49153;SDS011;49455;52.252;9.124;2023-11-19T14:26:20;31.92;;;5.97;;
49153;SDS011;49455;52.252;9.124;2023-11-19T14:31:20;26.33;;;5.68;;
49153;SDS011;49455;52.252;9.124;2023-11-19T14:36:21;36.75;;;6.00;;
49153;SDS011;49455;52.252;9.124;2023-11-19T14:41:21;26.17;;;5.75;;
49153;SDS011;49455;52.252;9.124;2023-11-19T14:46:25;27.55;;;5.75;;
49153;SDS011;49455;52.252;9.124;2023-11-19T14:51:26;30.00;;;6.38;;
49153;SDS011;49455;52.252;9.124;2023-11-19T14:56:26;26.23;;;6.30;;
49153;SDS011;49455;52.252;9.124;2023-11-19T15:01:27;26.27;;;6.07;;
49153;SDS011;49455;52.252;9.124;2023-11-19T15:06:29;28.35;;;5.88;;
49153;SDS011;49455;52.252;9.124;2023-11-19T15:11:30;22.58;;;5.30;;
49153;SDS011;49455;52.252;9.124;2023-11-19T15:16:30;24.10;;;5.07;;
49153;SDS011;49455;52.252;9.124;2023-11-19T15:21:31;23.40;;;5.30;;
49153;SDS011;49455;52.252;9.124;2023-11-19T15:26:31;25.67;;;5.75;;
49153;SDS011;49455;52.252;9.124;2023-11-19T15:31:32;29.50;;;6.97;;
49153;SDS011;49455;52.252;9.124;2023-11-19T15:36:32;30.30;;;6.45;;
49153;SDS011;49455;52.252;9.124;2023-11-19T15:41:33;25.02;;;6.15;;
49153;SDS011;49455;52.252;9.124;2023-11-19T15:46:33;31.40;;;6.45;;
49153;SDS011;49455;52.252;9.124;2023-11-19T15:51:34;22.83;;;5.70;;
49153;SDS011;49455;52.252;9.124;2023-11-19T15:56:35;27.85;;;6.65;;
49153;SDS011;49455;52.252;9.124;2023-11-19T16:01:36;26.63;;;6.43;;
49153;SDS011;49455;52.252;9.124;2023-11-19T16:06:37;26.02;;;5.53;;
49153;SDS011;49455;52.252;9.124;2023-11-19T16:11:37;21.63;;;5.18;;
49153;SDS011;49455;52.252;9.124;2023-11-19T16:16:38;22.60;;;5.90;;
49153;SDS011;49455;52.252;9.124;2023-11-19T16:21:38;23.42;;;5.18;;
49153;SDS011;49455;52.252;9.124;2023-11-19T16:26:39;24.85;;;4.97;;
49153;SDS011;49455;52.252;9.124;2023-11-19T16:31:39;23.10;;;4.45;;
49153;SDS011;49455;52.252;9.124;2023-11-19T16:36:40;22.73;;;5.45;;
49153;SDS011;49455;52.252;9.124;2023-11-19T16:41:40;22.45;;;5.10;;
49153;SDS011;49455;52.252;9.124;2023-11-19T16:46:41;23.27;;;5.72;;
49153;SDS011;49455;52.252;9.124;2023-11-19T16:51:44;22.23;;;4.88;;
49153;SDS011;49455;52.252;9.124;2023-11-19T16:56:45;23.80;;;4.90;;
49153;SDS011;49455;52.252;9.124;2023-11-19T17:01:46;26.00;;;5.72;;
49153;SDS011;49455;52.252;9.124;2023-11-19T17:06:46;23.77;;;6.18;;
49153;SDS011;49455;52.252;9.124;2023-11-19T17:11:46;22.98;;;5.97;;
49153;SDS011;49455;52.252;9.124;2023-11-19T17:16:47;21.35;;;5.95;;
49153;SDS011;49455;52.252;9.124;2023-11-19T17:21:47;22.27;;;6.13;;
49153;SDS011;49455;52.252;9.124;2023-11-19T17:26:51;22.00;;;5.85;;
49153;SDS011;49455;52.252;9.124;2023-11-19T17:32:09;21.05;;;6.50;;
49153;SDS011;49455;52.252;9.124;2023-11-19T17:37:22;21.63;;;6.95;;
49153;SDS011;49455;52.252;9.124;2023-11-19T17:42:22;23.33;;;6.72;;
49153;SDS011;49455;52.252;9.124;2023-11-19T17:47:25;20.08;;;6.32;;
49153;SDS011;49455;52.252;9.124;2023-11-19T17:52:25;23.23;;;7.47;;
49153;SDS011;49455;52.252;9.124;2023-11-19T17:57:26;21.73;;;6.15;;
49153;SDS011;49455;52.252;9.124;2023-11-19T18:02:26;22.90;;;6.32;;
49153;SDS011;49455;52.252;9.124;2023-11-19T18:07:26;27.63;;;7.57;;
49153;SDS011;49455;52.252;9.124;2023-11-19T18:12:27;20.00;;;6.97;;
49153;SDS011;49455;52.252;9.124;2023-11-19T18:17:27;21.70;;;6.18;;
49153;SDS011;49455;52.252;9.124;2023-11-19T18:22:28;22.38;;;6.80;;
49153;SDS011;49455;52.252;9.124;2023-11-19T18:27:28;23.20;;;7.80;;
49153;SDS011;49455;52.252;9.124;2023-11-19T18:32:29;20.55;;;6.32;;
49153;SDS011;49455;52.252;9.124;2023-11-19T18:37:29;25.42;;;6.78;;
49153;SDS011;49455;52.252;9.124;2023-11-19T18:42:30;21.58;;;6.35;;
49153;SDS011;49455;52.252;9.124;2023-11-19T18:47:30;21.25;;;5.50;;
49153;SDS011;49455;52.252;9.124;2023-11-19T18:52:31;19.52;;;5.30;;
49153;SDS011;49455;52.252;9.124;2023-11-19T18:57:31;17.20;;;5.70;;
49153;SDS011;49455;52.252;9.124;2023-11-19T19:02:32;24.25;;;5.90;;
49153;SDS011;49455;52.252;9.124;2023-11-19T19:07:33;19.75;;;6.55;;
49153;SDS011;49455;52.252;9.124;2023-11-19T19:12:34;20.05;;;6.00;;
49153;SDS011;49455;52.252;9.124;2023-11-19T19:17:34;16.98;;;6.22;;
49153;SDS011;49455;52.252;9.124;2023-11-19T19:22:38;22.67;;;6.68;;
49153;SDS011;49455;52.252;9.124;2023-11-19T19:27:47;26.40;;;7.97;;
49153;SDS011;49455;52.252;9.124;2023-11-19T19:32:48;29.10;;;8.18;;
49153;SDS011;49455;52.252;9.124;2023-11-19T19:37:54;24.65;;;8.73;;
49153;SDS011;49455;52.252;9.124;2023-11-19T19:43:38;22.80;;;9.45;;
49153;SDS011;49455;52.252;9.124;2023-11-19T19:48:38;40.95;;;16.85;;
49153;SDS011;49455;52.252;9.124;2023-11-19T19:53:39;35.90;;;15.48;;
49153;SDS011;49455;52.252;9.124;2023-11-19T19:58:40;21.27;;;10.00;;
49153;SDS011;49455;52.252;9.124;2023-11-19T20:03:40;20.70;;;7.72;;
49153;SDS011;49455;52.252;9.124;2023-11-19T20:08:40;18.60;;;7.57;;
49153;SDS011;49455;52.252;9.124;2023-11-19T20:13:41;17.70;;;7.40;;
49153;SDS011;49455;52.252;9.124;2023-11-19T20:18:41;20.10;;;6.78;;
49153;SDS011;49455;52.252;9.124;2023-11-19T20:23:42;15.80;;;6.40;;
49153;SDS011;49455;52.252;9.124;2023-11-19T20:28:42;13.55;;;6.28;;
49153;SDS011;49455;52.252;9.124;2023-11-19T20:33:43;12.13;;;5.70;;
49153;SDS011;49455;52.252;9.124;2023-11-19T20:38:43;12.93;;;5.60;;
49153;SDS011;49455;52.252;9.124;2023-11-19T20:43:44;11.75;;;6.22;;
49153;SDS011;49455;52.252;9.124;2023-11-19T20:48:44;9.10;;;5.03;;
49153;SDS011;49455;52.252;9.124;2023-11-19T20:53:45;8.55;;;4.53;;
49153;SDS011;49455;52.252;9.124;2023-11-19T20:58:45;9.60;;;4.85;;
49153;SDS011;49455;52.252;9.124;2023-11-19T21:03:46;6.22;;;4.28;;
49153;SDS011;49455;52.252;9.124;2023-11-19T21:08:46;9.77;;;5.68;;
49153;SDS011;49455;52.252;9.124;2023-11-19T21:13:47;7.18;;;4.03;;
49153;SDS011;49455;52.252;9.124;2023-11-19T21:18:47;8.00;;;5.20;;
49153;SDS011;49455;52.252;9.124;2023-11-19T21:23:48;8.07;;;5.10;;
49153;SDS011;49455;52.252;9.124;2023-11-19T21:28:48;8.02;;;4.28;;
49153;SDS011;49455;52.252;9.124;2023-11-19T21:33:48;10.65;;;4.93;;
49153;SDS011;49455;52.252;9.124;2023-11-19T21:38:49;8.70;;;4.95;;
49153;SDS011;49455;52.252;9.124;2023-11-19T21:43:49;9.30;;;5.00;;
49153;SDS011;49455;52.252;9.124;2023-11-19T21:48:50;8.40;;;4.90;;
49153;SDS011;49455;52.252;9.124;2023-11-19T21:53:50;8.70;;;4.30;;
49153;SDS011;49455;52.252;9.124;2023-11-19T21:58:51;7.68;;;4.65;;
49153;SDS011;49455;52.252;9.124;2023-11-19T22:03:51;6.53;;;3.72;;
49153;SDS011;49455;52.252;9.124;2023-11-19T22:08:51;7.32;;;3.00;;
49153;SDS011;49455;52.252;9.124;2023-11-19T22:13:52;6.38;;;2.88;;
49153;SDS011;49455;52.252;9.124;2023-11-19T22:18:52;7.13;;;2.88;;
49153;SDS011;49455;52.252;9.124;2023-11-19T22:23:53;5.07;;;2.35;;
49153;SDS011;49455;52.252;9.124;2023-11-19T22:28:53;4.88;;;2.17;;
49153;SDS011;49455;52.252;9.124;2023-11-19T22:33:54;4.93;;;2.55;;
49153;SDS011;49455;52.252;9.124;2023-11-19T22:38:54;5.47;;;2.75;;
49153;SDS011;49455;52.252;9.124;2023-11-19T22:43:58;4.18;;;2.40;;
49153;SDS011;49455;52.252;9.124;2023-11-19T22:48:58;6.85;;;3.10;;
49153;SDS011;49455;52.252;9.124;2023-11-19T22:53:59;8.07;;;3.00;;
49153;SDS011;49455;52.252;9.124;2023-11-19T22:58:59;5.18;;;2.22;;
49153;SDS011;49455;52.252;9.124;2023-11-19T23:04:00;4.45;;;2.20;;
49153;SDS011;49455;52.252;9.124;2023-11-19T23:09:00;4.32;;;2.00;;
49153;SDS011;49455;52.252;9.124;2023-11-19T23:14:00;4.22;;;2.35;;
49153;SDS011;49455;52.252;9.124;2023-11-19T23:19:01;5.30;;;2.38;;
49153;SDS011;49455;52.252;9.124;2023-11-19T23:24:01;4.93;;;2.28;;
49153;SDS011;49455;52.252;9.124;2023-11-19T23:29:02;3.30;;;1.90;;
49153;SDS011;49455;52.252;9.124;2023-11-19T23:34:03;3.30;;;2.03;;
49153;SDS011;49455;52.252;9.124;2023-11-19T23:39:03;3.58;;;2.03;;
49153;SDS011;49455;52.252;9.124;2023-11-19T23:44:04;3.78;;;2.08;;
49153;SDS011;49455;52.252;9.124;2023-11-19T23:49:04;5.22;;;2.50;;
49153;SDS011;49455;52.252;9.124;2023-11-19T23:54:05;4.32;;;2.22;;
49153;SDS011;49455;52.252;9.124;2023-11-19T23:59:05;3.35;;;2.05;;
